Time;durP1;ratioP1;P1;durP2;ratioP2;P2;SDS_P1;SDS_P2;PMS_P1;PMS_P2;Temp;Humidity;BMP_temperature;BMP_pressure;BME280_temperature;BME280_humidity;BME280_pressure;Samples;Min_cycle;Max_cycle;Signal;HPM_P1;HPM_P2
2021/07/24 00:00:04;;;;;;;17.50;11.40;;;589.40;1766.40;;;;;;5074394;28;20048;-71
2021/07/24 00:02:30;;;;;;;18.35;11.00;;;589.30;1766.40;;;;;;5077039;28;20102;-72
2021/07/24 00:04:56;;;;;;;15.73;11.07;;;589.40;1740.80;;;;;;5077002;28;20059;-71
2021/07/24 00:07:21;;;;;;;16.67;11.18;;;589.30;1766.40;;;;;;5076937;28;20097;-72
2021/07/24 00:09:47;;;;;;;15.93;11.32;;;589.30;1740.80;;;;;;5077009;28;20024;-72
2021/07/24 00:12:13;;;;;;;17.05;11.18;;;589.30;1766.40;;;;;;5076764;28;20036;-71
2021/07/24 00:14:40;;;;;;;12.93;11.40;;;589.30;1740.80;;;;;;5076823;28;20087;-71
2021/07/24 00:17:06;;;;;;;14.25;10.73;;;589.30;1740.80;;;;;;5076951;28;20464;-72
2021/07/24 00:19:31;;;;;;;13.90;11.60;;;589.30;1740.80;;;;;;5076729;28;20031;-72
2021/07/24 00:21:57;;;;;;;17.80;11.75;;;589.20;1740.80;;;;;;5076478;28;20024;-72
2021/07/24 00:24:23;;;;;;;16.40;11.98;;;589.20;1740.80;;;;;;5076612;28;20111;-71
2021/07/24 00:26:49;;;;;;;16.75;11.43;;;589.20;1740.80;;;;;;5076739;28;20023;-71
2021/07/24 00:29:15;;;;;;;14.27;11.43;;;589.10;1740.80;;;;;;5076402;28;20029;-72
2021/07/24 00:31:41;;;;;;;20.13;11.27;;;589.10;1740.80;;;;;;5076820;28;20024;-72
2021/07/24 00:34:07;;;;;;;15.10;11.38;;;589.10;1740.80;;;;;;5076639;28;20169;-71
2021/07/24 00:36:33;;;;;;;13.77;11.38;;;589.10;1740.80;;;;;;5076472;28;20417;-72
2021/07/24 00:38:59;;;;;;;17.60;10.45;;;589.00;1740.80;;;;;;5076244;28;20016;-72
2021/07/24 00:41:46;;;;;;;15.00;10.93;;;589.00;1740.80;;;;;;5076618;28;20116;-71
2021/07/24 00:44:16;;;;;;;12.88;11.38;;;589.00;1766.40;;;;;;5076234;28;20024;-71
2021/07/24 00:46:43;;;;;;;16.42;11.40;;;588.90;1766.40;;;;;;5076349;28;20024;-71
2021/07/24 00:49:13;;;;;;;14.07;11.85;;;588.90;1766.40;;;;;;5076264;28;20073;-72
2021/07/24 00:51:44;;;;;;;16.42;11.80;;;588.90;1766.40;;;;;;5076448;28;20073;-71
2021/07/24 00:54:11;;;;;;;16.17;12.30;;;588.80;1766.40;;;;;;5075948;28;20021;-71
2021/07/24 00:56:42;;;;;;;15.80;12.57;;;588.80;1766.40;;;;;;5076001;28;20036;-71
2021/07/24 00:59:08;;;;;;;15.70;12.35;;;588.80;1792.00;;;;;;5076000;28;20150;-73
2021/07/24 01:01:36;;;;;;;15.15;12.32;;;564.10;1792.00;;;;;;5057870;28;20486;-72
2021/07/24 01:04:03;;;;;;;13.48;11.48;;;564.10;1792.00;;;;;;5076063;28;20067;-71
2021/07/24 01:06:31;;;;;;;14.15;12.52;;;564.10;1792.00;;;;;;5076204;28;20028;-72
2021/07/24 01:08:57;;;;;;;19.83;13.02;;;564.10;1792.00;;;;;;5076206;28;20046;-71
2021/07/24 01:11:24;;;;;;;14.38;12.98;;;564.10;1792.00;;;;;;5074748;28;20028;-71
2021/07/24 01:13:50;;;;;;;20.25;12.73;;;564.10;1792.00;;;;;;5075629;28;20108;-71
2021/07/24 01:16:16;;;;;;;18.77;13.15;;;564.10;1792.00;;;;;;5076028;28;20108;-72
2021/07/24 01:18:42;;;;;;;15.93;12.50;;;564.00;1792.00;;;;;;5075989;28;20016;-72
2021/07/24 01:21:11;;;;;;;16.58;13.48;;;564.00;1792.00;;;;;;5075413;28;20129;-72
2021/07/24 01:23:38;;;;;;;18.80;13.82;;;564.00;1792.00;;;;;;5075728;28;20036;-72
2021/07/24 01:26:05;;;;;;;18.23;13.27;;;564.00;1817.60;;;;;;5057665;28;20048;-71
2021/07/24 01:28:35;;;;;;;19.45;13.43;;;564.00;1817.60;;;;;;5075463;28;20029;-72
2021/07/24 01:31:06;;;;;;;15.38;13.77;;;564.00;1817.60;;;;;;5075356;28;20135;-71
2021/07/24 01:33:34;;;;;;;16.90;13.57;;;564.00;1817.60;;;;;;5075243;28;20024;-71
2021/07/24 01:36:00;;;;;;;15.55;13.38;;;563.90;1817.60;;;;;;5075651;28;20044;-72
2021/07/24 01:38:26;;;;;;;16.58;13.13;;;563.90;1817.60;;;;;;5057516;28;20035;-71
2021/07/24 01:40:52;;;;;;;16.58;13.60;;;563.80;1843.20;;;;;;5075107;28;20459;-71
2021/07/24 01:43:17;;;;;;;18.80;13.82;;;563.80;1843.20;;;;;;5074951;28;20021;-71
2021/07/24 01:45:43;;;;;;;15.38;13.68;;;563.90;1843.20;;;;;;5075443;28;20074;-72
2021/07/24 01:48:16;;;;;;;18.42;13.60;;;563.90;1843.20;;;;;;5075138;28;20378;-71
2021/07/24 01:53:28;;;;;;;16.35;13.32;;;563.70;1843.20;;;;;;5075169;28;20086;-71
2021/07/24 01:56:07;;;;;;;16.17;13.73;;;563.70;1843.20;;;;;;5074719;28;20501;-72
2021/07/24 01:58:36;;;;;;;20.00;13.07;;;563.70;1843.20;;;;;;5075184;28;20021;-72
2021/07/24 02:01:04;;;;;;;18.60;13.30;;;563.70;1868.80;;;;;;5074712;28;20098;-72
2021/07/24 02:03:49;;;;;;;15.80;14.00;;;563.70;1843.20;;;;;;5074914;28;20063;-71
2021/07/24 02:06:17;;;;;;;17.10;12.82;;;563.70;1868.80;;;;;;5074766;28;20024;-71
2021/07/24 02:08:50;;;;;;;15.73;14.02;;;563.70;1868.80;;;;;;5074830;28;20350;-71
2021/07/24 02:11:16;;;;;;;;;;;563.70;1843.20;;;;;;5074875;28;20028;-71
2021/07/24 02:13:45;;;;;;;15.27;13.15;;;563.70;1868.80;;;;;;5074817;28;20325;-71
2021/07/24 02:16:12;;;;;;;18.35;13.57;;;563.60;1868.80;;;;;;5074676;28;20028;-71
2021/07/24 02:18:39;;;;;;;27.70;14.50;;;563.60;1868.80;;;;;;5074859;28;20085;-72
2021/07/24 02:21:05;;;;;;;15.43;12.45;;;563.70;1843.20;;;;;;5074409;28;20024;-71
2021/07/24 02:23:31;;;;;;;20.98;13.70;;;563.70;1868.80;;;;;;5074042;28;20025;-71
2021/07/24 02:25:57;;;;;;;16.15;14.23;;;563.60;1868.80;;;;;;5074403;28;20024;-71
2021/07/24 02:28:23;;;;;;;22.10;15.20;;;563.60;1868.80;;;;;;5056613;28;20028;-71
2021/07/24 02:30:49;;;;;;;22.55;15.88;;;563.60;1843.20;;;;;;5074556;28;20024;-73
2021/07/24 02:33:14;;;;;;;21.13;15.70;;;563.60;1843.20;;;;;;5073885;28;20504;-71
2021/07/24 02:35:40;;;;;;;20.88;15.75;;;563.60;1843.20;;;;;;5074072;28;20077;-71
2021/07/24 02:38:07;;;;;;;22.10;14.65;;;563.60;1843.20;;;;;;5056426;28;20055;-71
2021/07/24 02:40:34;;;;;;;20.98;14.55;;;563.60;1843.20;;;;;;5074109;28;20051;-71
2021/07/24 02:43:00;;;;;;;23.65;14.80;;;563.60;1843.20;;;;;;5073782;28;20423;-71
2021/07/24 02:45:26;;;;;;;19.73;16.27;;;563.60;1843.20;;;;;;5074227;28;20028;-71
2021/07/24 02:47:52;;;;;;;21.90;15.00;;;563.60;1843.20;;;;;;5074021;28;20514;-72
2021/07/24 02:50:17;;;;;;;19.33;14.50;;;563.50;1843.20;;;;;;5074269;28;20115;-71
2021/07/24 02:52:43;;;;;;;18.90;14.35;;;563.50;1843.20;;;;;;5039440;28;20377;-72
2021/07/24 02:55:10;;;;;;;23.83;15.07;;;563.50;1868.80;;;;;;5055776;28;20033;-71
2021/07/24 02:57:36;;;;;;;19.95;14.70;;;563.40;1868.80;;;;;;5073883;28;20053;-71
2021/07/24 03:00:03;;;;;;;24.50;14.13;;;563.50;1868.80;;;;;;5073734;28;20374;-71
2021/07/24 03:02:29;;;;;;;18.63;15.13;;;563.40;1894.40;;;;;;5073660;28;20103;-71
2021/07/24 03:04:54;;;;;;;25.30;14.43;;;563.40;1894.40;;;;;;5073772;28;20508;-71
2021/07/24 03:07:20;;;;;;;21.73;14.70;;;563.40;1894.40;;;;;;5073648;28;20016;-72
2021/07/24 03:09:46;;;;;;;27.25;13.48;;;563.30;1894.40;;;;;;5073771;28;20027;-71
2021/07/24 03:12:13;;;;;;;16.90;13.15;;;563.30;1894.40;;;;;;5073324;28;20028;-72
2021/07/24 03:14:38;;;;;;;20.10;14.50;;;563.30;1894.40;;;;;;5073675;28;20028;-71
2021/07/24 03:17:04;;;;;;;19.17;14.38;;;563.20;1868.80;;;;;;5073641;28;20031;-71
2021/07/24 03:19:30;;;;;;;25.13;13.98;;;563.20;1894.40;;;;;;5073493;28;20051;-71
2021/07/24 03:21:56;;;;;;;22.35;15.18;;;563.20;1894.40;;;;;;5073141;28;20435;-72
2021/07/24 03:24:22;;;;;;;24.40;15.20;;;563.20;1894.40;;;;;;5073583;28;20070;-72
2021/07/24 03:26:48;;;;;;;18.23;15.20;;;563.20;1894.40;;;;;;5073519;28;20028;-71
2021/07/24 03:29:13;;;;;;;20.45;15.25;;;563.20;1894.40;;;;;;5073362;28;20027;-71
2021/07/24 03:31:39;;;;;;;20.92;14.40;;;563.20;1894.40;;;;;;5073414;28;20055;-71
2021/07/24 03:34:05;;;;;;;16.20;14.27;;;563.20;1920.00;;;;;;5072627;28;20028;-71
2021/07/24 03:36:31;;;;;;;27.35;14.38;;;563.20;1920.00;;;;;;5073250;28;20036;-72
2021/07/24 03:38:57;;;;;;;19.98;14.15;;;538.50;1894.40;;;;;;5073316;28;20056;-72
2021/07/24 03:41:22;;;;;;;21.15;14.48;;;563.20;1920.00;;;;;;5073190;28;20025;-71
2021/07/24 03:43:48;;;;;;;20.50;14.43;;;563.20;1920.00;;;;;;5072912;28;20055;-72
2021/07/24 03:46:16;;;;;;;22.20;14.25;;;563.20;1920.00;;;;;;5073586;28;20085;-74
2021/07/24 03:48:42;;;;;;;18.38;13.75;;;563.20;1920.00;;;;;;5073183;28;20051;-72
2021/07/24 03:51:10;;;;;;;23.15;13.73;;;563.30;1920.00;;;;;;5073223;28;20032;-72
2021/07/24 03:53:37;;;;;;;22.35;14.38;;;563.20;1920.00;;;;;;5073081;28;20145;-71
2021/07/24 03:56:03;;;;;;;20.05;13.90;;;563.20;1920.00;;;;;;5072979;28;20551;-72
2021/07/24 03:58:29;;;;;;;18.13;14.00;;;538.50;1894.40;;;;;;5073291;28;20025;-71
2021/07/24 04:00:55;;;;;;;16.85;13.23;;;538.50;1894.40;;;;;;5073430;28;20104;-71
2021/07/24 04:03:24;;;;;;;17.42;13.05;;;538.50;1894.40;;;;;;5072619;28;20016;-71
2021/07/24 04:05:52;;;;;;;15.45;12.50;;;538.50;1894.40;;;;;;5073441;28;20123;-71
2021/07/24 04:08:18;;;;;;;19.52;13.05;;;538.50;1894.40;;;;;;5073392;28;20027;-71
2021/07/24 04:10:45;;;;;;;15.70;12.50;;;538.50;1894.40;;;;;;5073325;28;20103;-72
2021/07/24 04:13:11;;;;;;;15.52;13.32;;;538.50;1894.40;;;;;;5054563;28;20116;-71
2021/07/24 04:15:38;;;;;;;14.88;13.30;;;563.20;1920.00;;;;;;5072951;28;20094;-71
2021/07/24 04:18:06;;;;;;;18.17;13.25;;;538.50;1894.40;;;;;;5073021;28;20447;-71
2021/07/24 04:20:32;;;;;;;15.20;12.48;;;538.50;1894.40;;;;;;5072917;28;20060;-71
2021/07/24 04:22:58;;;;;;;16.02;12.25;;;563.20;1920.00;;;;;;5054175;28;20031;-71
2021/07/24 04:25:24;;;;;;;13.68;12.27;;;538.50;1894.40;;;;;;5072382;28;20496;-71
2021/07/24 04:27:50;;;;;;;14.20;12.50;;;538.40;1920.00;;;;;;5072609;28;20055;-72
2021/07/24 04:30:16;;;;;;;18.27;12.73;;;538.50;1920.00;;;;;;5072816;28;20040;-72
2021/07/24 04:32:42;;;;;;;15.73;12.57;;;538.50;1920.00;;;;;;5072125;28;20495;-72
2021/07/24 04:35:08;;;;;;;15.80;11.90;;;538.50;1920.00;;;;;;5072355;28;20036;-72
2021/07/24 04:37:34;;;;;;;17.80;12.63;;;538.50;1894.40;;;;;;5072976;28;20020;-72
2021/07/24 04:40:01;;;;;;;13.75;11.98;;;563.20;1945.60;;;;;;5072615;28;20024;-71
2021/07/24 04:42:27;;;;;;;14.43;11.65;;;563.20;1920.00;;;;;;5072735;28;20029;-71
2021/07/24 04:44:53;;;;;;;14.32;12.00;;;563.20;1920.00;;;;;;5072456;28;20358;-71
2021/07/24 04:47:18;;;;;;;18.10;11.77;;;563.20;1920.00;;;;;;5074385;28;20481;-71
2021/07/24 04:49:49;;;;;;;16.50;11.80;;;563.20;1920.00;;;;;;5076174;28;20024;-71
2021/07/24 04:52:15;;;;;;;13.93;11.57;;;563.20;1945.60;;;;;;5058105;28;20449;-72
2021/07/24 04:54:43;;;;;;;15.27;11.90;;;563.20;1971.20;;;;;;5076125;28;20039;-71
2021/07/24 04:57:10;;;;;;;14.18;11.52;;;563.30;1920.00;;;;;;5075866;28;20056;-71
2021/07/24 04:59:46;;;;;;;12.52;10.68;;;563.30;1920.00;;;;;;5075935;28;20020;-71
2021/07/24 05:02:15;;;;;;;17.23;11.93;;;563.40;1894.40;;;;;;5075835;28;20024;-71
2021/07/24 05:04:41;;;;;;;18.92;11.45;;;563.50;1920.00;;;;;;5075637;28;20512;-72
2021/07/24 05:07:07;;;;;;;19.58;11.82;;;563.50;1920.00;;;;;;5058162;28;20055;-71
2021/07/24 05:09:33;;;;;;;15.27;11.20;;;563.50;1920.00;;;;;;5075767;28;20380;-71
2021/07/24 05:11:59;;;;;;;13.68;11.25;;;563.50;1920.00;;;;;;5075405;28;20036;-73
2021/07/24 05:14:25;;;;;;;15.65;11.85;;;563.50;1920.00;;;;;;5075644;28;20028;-71
2021/07/24 05:16:50;;;;;;;15.18;11.18;;;563.60;1920.00;;;;;;5075757;28;20021;-72
2021/07/24 05:19:16;;;;;;;16.00;11.23;;;563.60;1920.00;;;;;;5075584;28;20023;-71
2021/07/24 05:21:42;;;;;;;15.27;12.05;;;563.70;1920.00;;;;;;5075689;28;20032;-71
2021/07/24 05:24:08;;;;;;;16.17;11.77;;;563.70;1920.00;;;;;;5075145;28;20380;-71
2021/07/24 05:26:34;;;;;;;13.52;11.82;;;563.70;1920.00;;;;;;5075579;28;20119;-71
2021/07/24 05:28:59;;;;;;;14.43;12.30;;;563.70;1894.40;;;;;;5075554;28;20025;-71
2021/07/24 05:31:28;;;;;;;21.17;11.80;;;563.70;1894.40;;;;;;5075355;28;20060;-71
2021/07/24 05:33:54;;;;;;;12.60;10.82;;;563.70;1920.00;;;;;;5075380;28;20029;-71
2021/07/24 05:36:20;;;;;;;12.68;10.75;;;563.80;1894.40;;;;;;5075378;28;20115;-71
2021/07/24 05:38:46;;;;;;;15.75;12.82;;;563.80;1894.40;;;;;;5075285;28;20533;-71
2021/07/24 05:41:12;;;;;;;15.98;12.25;;;563.90;1894.40;;;;;;5075300;28;20032;-72
2021/07/24 05:43:37;;;;;;;14.02;10.80;;;564.00;1894.40;;;;;;5074811;28;20384;-71
2021/07/24 05:46:03;;;;;;;17.70;12.35;;;564.00;1920.00;;;;;;5056897;28;20025;-71
2021/07/24 05:48:29;;;;;;;15.55;11.70;;;564.00;1894.40;;;;;;5075120;28;20017;-71
2021/07/24 05:50:55;;;;;;;16.10;11.27;;;564.00;1894.40;;;;;;5075386;28;20039;-71
2021/07/24 05:53:21;;;;;;;14.75;11.90;;;564.10;1894.40;;;;;;5074768;28;20461;-71
2021/07/24 05:55:47;;;;;;;12.57;11.27;;;564.10;1894.40;;;;;;5074704;28;20033;-71
2021/07/24 05:58:13;;;;;;;13.35;12.00;;;588.80;1894.40;;;;;;5074464;28;20114;-71
2021/07/24 06:00:38;;;;;;;13.82;11.70;;;588.80;1894.40;;;;;;5075158;28;20074;-71
2021/07/24 06:03:04;;;;;;;15.40;11.75;;;588.90;1894.40;;;;;;5074638;28;20052;-71
2021/07/24 06:05:30;;;;;;;15.32;12.80;;;588.90;1868.80;;;;;;5074523;28;20029;-72
2021/07/24 06:07:56;;;;;;;12.25;10.77;;;589.00;1894.40;;;;;;5074770;28;20028;-72
2021/07/24 06:10:22;;;;;;;14.10;12.25;;;589.00;1868.80;;;;;;5074719;28;20052;-71
2021/07/24 06:12:48;;;;;;;16.77;10.60;;;589.10;1868.80;;;;;;5074489;28;20016;-71
2021/07/24 06:15:14;;;;;;;14.40;10.57;;;589.10;1868.80;;;;;;5074088;28;20027;-72
2021/07/24 06:17:40;;;;;;;15.38;10.77;;;589.20;1843.20;;;;;;5074589;28;20024;-71
2021/07/24 06:20:06;;;;;;;15.85;10.75;;;589.30;1868.80;;;;;;5074491;28;20103;-72
2021/07/24 06:22:32;;;;;;;14.13;10.40;;;589.30;1868.80;;;;;;5074383;28;20029;-73
2021/07/24 06:24:58;;;;;;;12.75;10.70;;;589.40;1868.80;;;;;;5074291;28;20495;-72
2021/07/24 06:27:23;;;;;;;10.95;9.63;;;589.40;1843.20;;;;;;5074334;28;20065;-71
2021/07/24 06:29:49;;;;;;;18.02;10.18;;;589.40;1843.20;;;;;;5074386;28;20117;-71
2021/07/24 06:32:15;;;;;;;14.68;9.65;;;589.50;1817.60;;;;;;5073937;28;20024;-71
2021/07/24 06:34:41;;;;;;;9.85;8.43;;;589.60;1792.00;;;;;;5074168;28;20027;-71
2021/07/24 06:37:07;;;;;;;9.65;8.43;;;589.70;1792.00;;;;;;5074030;28;20021;-71
2021/07/24 06:39:32;;;;;;;11.57;9.20;;;614.40;1817.60;;;;;;5073972;28;20358;-73
2021/07/24 06:41:58;;;;;;;14.45;8.60;;;614.40;1792.00;;;;;;5073921;28;20025;-72
2021/07/24 06:44:25;;;;;;;16.48;8.65;;;614.50;1792.00;;;;;;5056095;28;20021;-71
2021/07/24 06:46:50;;;;;;;9.15;8.20;;;614.60;1766.40;;;;;;5073823;28;20036;-71
2021/07/24 06:49:16;;;;;;;8.27;7.47;;;614.70;1766.40;;;;;;5073852;28;20024;-72
2021/07/24 06:51:42;;;;;;;10.63;8.25;;;614.80;1766.40;;;;;;5073980;28;20029;-71
2021/07/24 06:54:08;;;;;;;9.75;7.60;;;614.80;1766.40;;;;;;5073360;28;20029;-71
2021/07/24 06:56:34;;;;;;;9.10;8.07;;;614.90;1740.80;;;;;;5073419;28;20045;-71
2021/07/24 06:58:59;;;;;;;9.43;7.47;;;615.00;1740.80;;;;;;5055923;28;20025;-71
2021/07/24 07:01:25;;;;;;;11.02;7.63;;;615.10;1740.80;;;;;;5073940;28;20085;-72
2021/07/24 07:03:51;;;;;;;14.48;9.75;;;615.20;1715.20;;;;;;5073485;28;20373;-72
2021/07/24 07:06:17;;;;;;;9.70;7.70;;;615.20;1740.80;;;;;;5073586;28;20024;-72
2021/07/24 07:08:43;;;;;;;11.50;7.57;;;615.20;1715.20;;;;;;5073554;28;20170;-72
2021/07/24 07:11:09;;;;;;;8.70;7.50;;;615.30;1715.20;;;;;;5073258;28;20532;-72
2021/07/24 07:13:35;;;;;;;10.73;7.63;;;640.00;1715.20;;;;;;5073065;28;20400;-72
2021/07/24 07:16:06;;;;;;;13.70;8.80;;;640.10;1689.60;;;;;;5073035;28;20051;-72
2021/07/24 07:18:32;;;;;;;9.77;8.35;;;640.10;1689.60;;;;;;5073696;28;20020;-72
2021/07/24 07:20:59;;;;;;;9.88;7.57;;;640.20;1689.60;;;;;;5073583;28;20099;-73
2021/07/24 07:23:25;;;;;;;8.88;7.22;;;640.20;1689.60;;;;;;5073062;28;20024;-72
2021/07/24 07:25:51;;;;;;;11.63;7.85;;;640.30;1689.60;;;;;;5073087;28;20020;-71
2021/07/24 07:28:17;;;;;;;11.40;7.50;;;640.30;1689.60;;;;;;5073423;28;20025;-72
2021/07/24 07:30:43;;;;;;;11.70;7.97;;;640.30;1689.60;;;;;;5073020;28;20465;-71
2021/07/24 07:33:08;;;;;;;9.75;8.13;;;640.50;1689.60;;;;;;5073009;28;20052;-72
2021/07/24 07:35:34;;;;;;;10.60;7.53;;;640.50;1664.00;;;;;;5073067;28;20029;-71
2021/07/24 07:38:00;;;;;;;8.27;7.47;;;640.50;1664.00;;;;;;5072954;28;20017;-71
2021/07/24 07:40:26;;;;;;;12.57;7.47;;;640.60;1664.00;;;;;;5072814;28;20068;-72
2021/07/24 07:42:52;;;;;;;12.35;8.30;;;640.60;1664.00;;;;;;5072549;28;20024;-71
2021/07/24 07:45:18;;;;;;;11.20;7.80;;;640.60;1638.40;;;;;;5072863;28;20024;-72
2021/07/24 07:47:44;;;;;;;11.60;7.50;;;640.60;1664.00;;;;;;5072523;28;20023;-71
2021/07/24 07:50:10;;;;;;;9.75;7.45;;;640.60;1638.40;;;;;;5073230;28;20029;-72
2021/07/24 07:52:36;;;;;;;9.65;7.47;;;640.60;1664.00;;;;;;5054491;28;20029;-72
2021/07/24 07:55:03;;;;;;;9.38;7.93;;;640.60;1664.00;;;;;;5072623;28;20119;-76
2021/07/24 07:57:29;;;;;;;9.15;7.47;;;640.70;1638.40;;;;;;5050827;28;20552;-73
2021/07/24 07:59:56;;;;;;;9.43;7.72;;;640.70;1664.00;;;;;;5051451;28;20017;-72
2021/07/24 08:02:22;;;;;;;9.65;7.43;;;640.70;1664.00;;;;;;5051381;28;20450;-72
2021/07/24 08:04:49;;;;;;;13.32;8.25;;;640.70;1664.00;;;;;;5051381;28;20088;-72
2021/07/24 08:07:16;;;;;;;23.27;8.27;;;640.80;1664.00;;;;;;5051374;28;20037;-72
2021/07/24 08:09:42;;;;;;;15.93;7.82;;;665.60;1664.00;;;;;;5051142;28;20017;-72
2021/07/24 08:12:07;;;;;;;22.58;7.35;;;665.60;1664.00;;;;;;5049937;28;20080;-72
2021/07/24 08:14:33;;;;;;;14.02;8.23;;;665.60;1664.00;;;;;;5052110;28;20155;-72
2021/07/24 08:16:59;;;;;;;26.83;8.57;;;665.60;1664.00;;;;;;5051089;28;20500;-72
2021/07/24 08:19:26;;;;;;;27.42;8.18;;;665.60;1664.00;;;;;;5051120;28;20491;-72
2021/07/24 08:21:52;;;;;;;27.13;8.50;;;665.70;1638.40;;;;;;5051497;28;20032;-71
2021/07/24 08:24:18;;;;;;;20.80;7.82;;;665.70;1664.00;;;;;;5054799;28;20017;-71
2021/07/24 08:26:44;;;;;;;27.98;8.00;;;665.70;1664.00;;;;;;5054568;28;20025;-72
2021/07/24 08:29:09;;;;;;;26.13;8.57;;;665.70;1664.00;;;;;;5056249;28;20025;-71
2021/07/24 08:31:35;;;;;;;22.58;7.60;;;665.70;1664.00;;;;;;5056128;28;20085;-71
2021/07/24 08:34:01;;;;;;;16.75;7.75;;;665.70;1664.00;;;;;;5055222;28;20060;-71
2021/07/24 08:36:27;;;;;;;53.35;10.35;;;665.70;1664.00;;;;;;5056238;28;20119;-71
2021/07/24 08:38:53;;;;;;;54.53;8.93;;;665.70;1664.00;;;;;;5055524;28;20021;-72
2021/07/24 08:41:18;;;;;;;52.33;8.07;;;665.70;1664.00;;;;;;5056324;28;20053;-71
2021/07/24 08:43:46;;;;;;;30.67;7.82;;;665.80;1664.00;;;;;;5056205;28;20021;-74
2021/07/24 08:46:12;;;;;;;26.52;8.40;;;665.80;1638.40;;;;;;5050701;28;20024;-72
2021/07/24 08:48:39;;;;;;;21.38;7.07;;;665.80;1638.40;;;;;;5054273;28;20096;-72
2021/07/24 08:51:05;;;;;;;18.42;7.10;;;665.70;1638.40;;;;;;5055031;28;20029;-72
2021/07/24 08:53:34;;;;;;;20.88;6.72;;;665.70;1638.40;;;;;;5054435;28;20033;-72
2021/07/24 08:56:03;;;;;;;10.75;6.40;;;665.70;1638.40;;;;;;5054866;28;20041;-71
2021/07/24 08:58:33;;;;;;;18.00;6.05;;;665.80;1612.80;;;;;;5073335;28;20026;-72
2021/07/24 09:00:59;;;;;;;12.65;6.93;;;665.80;1612.80;;;;;;5074352;28;20503;-71
2021/07/24 09:03:27;;;;;;;13.38;6.20;;;665.80;1612.80;;;;;;5074611;28;20028;-72
2021/07/24 09:05:53;;;;;;;15.27;6.90;;;665.80;1612.80;;;;;;5074317;28;20028;-71
2021/07/24 09:08:24;;;;;;;10.95;6.57;;;665.80;1612.80;;;;;;5074546;28;20105;-72
2021/07/24 09:10:51;;;;;;;10.93;6.15;;;665.70;1612.80;;;;;;5072196;28;20047;-71
2021/07/24 09:13:18;;;;;;;9.52;6.18;;;665.70;1612.80;;;;;;5074400;28;20023;-71
2021/07/24 09:15:44;;;;;;;11.32;5.97;;;665.70;1587.20;;;;;;5074233;28;20705;-70
2021/07/24 09:18:10;;;;;;;10.10;6.10;;;665.70;1587.20;;;;;;5074558;28;20465;-71
2021/07/24 09:20:36;;;;;;;11.10;6.28;;;665.70;1587.20;;;;;;5056176;28;20036;-70
2021/07/24 09:23:28;;;;;;;9.48;5.43;;;665.70;1587.20;;;;;;5074031;28;20020;-71
2021/07/24 09:25:55;;;;;;;9.05;6.10;;;665.70;1561.60;;;;;;5074358;28;20099;-71
2021/07/24 09:28:21;;;;;;;8.13;5.10;;;665.70;1561.60;;;;;;5074436;28;20032;-71
2021/07/24 09:30:47;;;;;;;8.07;5.07;;;665.70;1408.00;;;;;;5074052;28;20028;-72
2021/07/24 09:33:17;;;;;;;7.28;5.72;;;665.80;1459.20;;;;;;5072798;28;20055;-71
2021/07/24 09:35:56;;;;;;;12.90;6.22;;;665.90;1536.00;;;;;;5073520;28;20108;-71
2021/07/24 09:38:28;;;;;;;24.20;6.20;;;665.90;1536.00;;;;;;5073875;28;20473;-72
2021/07/24 09:40:56;;;;;;;13.32;5.70;;;665.90;1536.00;;;;;;5073345;28;20099;-70
2021/07/24 09:43:36;;;;;;;13.75;5.95;;;665.90;1536.00;;;;;;5055313;28;20427;-71
2021/07/24 09:46:13;;;;;;;14.85;5.95;;;665.60;1536.00;;;;;;5073860;28;20252;-71
2021/07/24 09:48:43;;;;;;;14.63;7.35;;;665.80;1561.60;;;;;;5071620;28;20020;-71
2021/07/24 09:51:09;;;;;;;9.93;6.53;;;665.90;1510.40;;;;;;5072136;28;20124;-71
2021/07/24 09:53:45;;;;;;;13.52;8.88;;;666.00;1536.00;;;;;;5071880;28;20111;-71
2021/07/24 09:56:14;;;;;;;14.27;7.63;;;666.00;1433.60;;;;;;5072035;28;20048;-71
2021/07/24 09:58:41;;;;;;;12.30;7.70;;;666.00;1536.00;;;;;;5072218;28;20377;-71
2021/07/24 10:01:09;;;;;;;13.23;7.25;;;666.00;1536.00;;;;;;5071785;28;20028;-71
2021/07/24 10:03:38;;;;;;;15.50;7.60;;;665.90;1536.00;;;;;;5071963;28;20491;-71
2021/07/24 10:06:15;;;;;;;10.93;7.68;;;665.90;1561.60;;;;;;5072004;28;20039;-72
2021/07/24 10:08:43;;;;;;;11.18;7.35;;;665.90;1561.60;;;;;;5072643;28;20036;-71
2021/07/24 10:11:10;;;;;;;14.73;7.30;;;665.80;1536.00;;;;;;5073021;28;20443;-71
2021/07/24 10:13:40;;;;;;;11.80;6.00;;;665.80;1561.60;;;;;;5073225;28;20044;-71
2021/07/24 10:16:07;;;;;;;10.77;6.13;;;665.80;1510.40;;;;;;5072935;28;20048;-71
2021/07/24 10:18:33;;;;;;;15.80;6.55;;;666.00;1408.00;;;;;;5073079;28;20477;-72
2021/07/24 10:21:00;;;;;;;28.20;7.32;;;666.00;1408.00;;;;;;5073095;28;20592;-72
2021/07/24 10:23:25;;;;;;;12.95;6.57;;;666.10;1484.80;;;;;;5072885;28;20107;-71
2021/07/24 10:26:02;;;;;;;13.48;6.20;;;666.10;1484.80;;;;;;5073283;28;20112;-71
2021/07/24 10:28:53;;;;;;;13.98;6.32;;;666.10;1484.80;;;;;;5072987;28;20027;-72
2021/07/24 10:31:24;;;;;;;10.95;6.05;;;666.00;1510.40;;;;;;5072811;28;20024;-72
2021/07/24 10:33:58;;;;;;;10.85;6.18;;;666.10;1433.60;;;;;;5072721;28;20044;-72
2021/07/24 10:36:38;;;;;;;11.55;6.28;;;666.00;1510.40;;;;;;5073195;28;20089;-71
2021/07/24 10:39:08;;;;;;;10.65;5.53;;;666.10;1484.80;;;;;;5072634;28;20012;-71
2021/07/24 10:41:36;;;;;;;11.40;5.55;;;666.10;1408.00;;;;;;5072613;28;20078;-72
2021/07/24 10:44:06;;;;;;;9.38;5.82;;;666.20;1382.40;;;;;;5053528;28;20055;-69
2021/07/24 10:46:43;;;;;;;12.23;6.28;;;666.30;1408.00;;;;;;5073052;28;20033;-71
2021/07/24 10:49:32;;;;;;;16.92;6.28;;;666.30;1459.20;;;;;;5072214;28;20025;-71
2021/07/24 10:51:59;;;;;;;19.00;10.07;;;666.30;1459.20;;;;;;5063032;28;20039;-71
2021/07/24 10:54:46;;;;;;;20.75;10.52;;;666.30;1459.20;;;;;;5072549;28;20028;-71
2021/07/24 10:57:31;;;;;;;21.17;14.85;;;666.30;1433.60;;;;;;5010121;28;20558;-72
2021/07/24 11:00:17;;;;;;;14.40;7.25;;;666.50;1382.40;;;;;;5010324;28;20042;-70
2021/07/24 11:02:50;;;;;;;16.75;9.00;;;666.50;1408.00;;;;;;5010181;28;20037;-71
2021/07/24 11:05:26;;;;;;;11.23;9.20;;;666.50;1280.00;;;;;;5010194;28;20557;-71
2021/07/24 11:07:53;;;;;;;15.15;8.88;;;691.20;1280.00;;;;;;5010671;28;20061;-71
2021/07/24 11:10:20;;;;;;;14.98;10.35;;;666.30;1408.00;;;;;;5009964;28;20034;-72
2021/07/24 11:12:46;;;;;;;13.23;9.95;;;666.50;1433.60;;;;;;5009628;28;20056;-72
2021/07/24 11:15:18;;;;;;;22.33;14.20;;;691.20;1408.00;;;;;;5010111;28;20068;-71
2021/07/24 11:17:45;;;;;;;17.95;9.93;;;691.20;1408.00;;;;;;5010195;28;20030;-72
2021/07/24 11:20:10;;;;;;;17.67;9.05;;;691.20;1408.00;;;;;;5010336;28;20121;-71
2021/07/24 11:23:00;;;;;;;15.85;8.18;;;691.20;1382.40;;;;;;5009666;28;20465;-72
2021/07/24 11:25:34;;;;;;;40.10;9.55;;;691.30;1382.40;;;;;;5009956;28;20046;-72
2021/07/24 11:28:00;;;;;;;27.60;9.48;;;691.30;1408.00;;;;;;4993638;28;20073;-71
2021/07/24 11:30:26;;;;;;;19.77;8.40;;;691.30;1408.00;;;;;;5010189;28;20037;-71
2021/07/24 11:32:56;;;;;;;11.52;8.18;;;691.20;1433.60;;;;;;5009119;28;20455;-71
2021/07/24 11:35:28;;;;;;;13.95;9.50;;;691.20;1433.60;;;;;;5068629;28;20388;-71
2021/07/24 11:37:54;;;;;;;18.70;12.35;;;666.40;1408.00;;;;;;5071733;28;20515;-71
2021/07/24 11:40:26;;;;;;;13.30;9.68;;;666.40;1433.60;;;;;;5071407;28;20097;-72
2021/07/24 11:43:07;;;;;;;17.03;9.57;;;666.40;1433.60;;;;;;5071840;28;20021;-71
2021/07/24 11:45:36;;;;;;;14.82;8.73;;;666.40;1433.60;;;;;;5071834;28;20033;-70
2021/07/24 11:48:17;;;;;;;16.65;9.25;;;691.20;1408.00;;;;;;5071955;28;20082;-71
2021/07/24 11:50:45;;;;;;;11.55;7.60;;;691.20;1433.60;;;;;;5071589;28;20074;-71
2021/07/24 11:53:11;;;;;;;12.68;8.20;;;691.20;1433.60;;;;;;5071570;28;20024;-71
2021/07/24 11:55:40;;;;;;;16.42;6.45;;;691.20;1408.00;;;;;;5072413;28;20036;-71
2021/07/24 11:58:14;;;;;;;12.32;6.90;;;691.30;1382.40;;;;;;5075528;28;20049;-73
2021/07/24 12:00:53;;;;;;;11.80;7.03;;;691.30;1382.40;;;;;;5075469;28;20044;-73
2021/07/24 12:03:23;;;;;;;15.85;6.97;;;691.30;1382.40;;;;;;5075048;28;20016;-72
2021/07/24 12:06:02;;;;;;;12.00;6.80;;;691.30;1408.00;;;;;;5074525;28;20092;-71
2021/07/24 12:08:30;;;;;;;11.13;7.07;;;691.30;1408.00;;;;;;5073230;28;20530;-71